createdAt,value
2019-04-26T00:00:52.705Z,99.90
2019-04-26T00:03:25.469Z,98.80
2019-04-26T00:05:54.188Z,99.90
2019-04-26T00:08:22.614Z,99.90
2019-04-26T00:10:52.747Z,99.90
2019-04-26T00:13:28.857Z,99.90
2019-04-26T00:16:15.482Z,99.60
2019-04-26T00:18:44.153Z,99.90
2019-04-26T00:21:12.613Z,98.90
2019-04-26T00:23:41.310Z,99.90
2019-04-26T00:26:11.061Z,99.90
2019-04-26T00:28:40.177Z,99.90
2019-04-26T00:31:08.602Z,99.90
2019-04-26T00:33:37.377Z,98.40
2019-04-26T00:36:05.969Z,99.90
2019-04-26T00:38:34.419Z,99.90
2019-04-26T00:41:03.104Z,99.90
2019-04-26T00:43:31.793Z,96.00
2019-04-26T00:46:02.073Z,95.10
2019-04-26T00:48:32.441Z,94.30
2019-04-26T00:51:03.333Z,94.50
2019-04-26T00:53:34.346Z,94.60
2019-04-26T00:56:05.269Z,94.40
2019-04-26T00:58:34.760Z,99.70
2019-04-26T01:01:03.275Z,99.20
2019-04-26T01:03:31.778Z,95.10
2019-04-26T01:06:01.842Z,94.60
2019-04-26T01:08:30.545Z,94.40
2019-04-26T01:10:58.974Z,94.50
2019-04-26T01:13:27.427Z,94.80
2019-04-26T01:15:55.850Z,94.70
2019-04-26T01:18:24.485Z,95.30
2019-04-26T01:20:56.137Z,94.70
2019-04-26T01:23:27.369Z,95.40
2019-04-26T01:26:15.385Z,97.10
2019-04-26T01:28:58.114Z,96.30
2019-04-26T01:31:28.569Z,95.00
2019-04-26T01:33:57.070Z,94.90
2019-04-26T01:36:27.056Z,95.40
2019-04-26T01:38:58.554Z,99.10
2019-04-26T01:41:34.358Z,99.90
2019-04-26T01:44:10.533Z,99.90
2019-04-26T01:46:41.637Z,95.70
2019-04-26T01:49:11.832Z,95.40
2019-04-26T01:51:55.184Z,95.40
2019-04-26T01:54:27.760Z,95.60
2019-04-26T01:56:59.386Z,99.90
2019-04-26T01:59:29.538Z,99.90
2019-04-26T02:02:02.787Z,99.90
2019-04-26T02:04:33.001Z,95.60
2019-04-26T02:07:01.570Z,94.60
2019-04-26T02:09:30.568Z,94.90
2019-04-26T02:11:59.400Z,94.90
2019-04-26T02:14:28.957Z,99.50
2019-04-26T02:16:57.662Z,97.90
2019-04-26T02:19:27.419Z,96.00
2019-04-26T02:22:10.146Z,94.60
2019-04-26T02:24:40.279Z,94.20
2019-04-26T02:27:10.525Z,97.40
2019-04-26T02:29:38.951Z,99.90
2019-04-26T02:32:08.981Z,94.80
2019-04-26T02:34:38.355Z,94.60
2019-04-26T02:37:10.258Z,95.80
2019-04-26T02:39:42.059Z,99.90
2019-04-26T02:42:16.194Z,99.20
2019-04-26T02:44:49.342Z,95.20
2019-04-26T02:47:35.005Z,95.90
2019-04-26T02:50:28.335Z,95.30
2019-04-26T02:53:00.149Z,95.00
2019-04-26T02:55:49.512Z,95.10
2019-04-26T02:58:20.996Z,98.10
2019-04-26T03:00:50.596Z,95.40
2019-04-26T03:03:22.154Z,95.40
2019-04-26T03:05:52.418Z,95.60
2019-04-26T03:08:22.703Z,99.60
2019-04-26T03:10:54.286Z,95.70
2019-04-26T03:13:27.447Z,95.60
2019-04-26T03:16:15.783Z,96.10
2019-04-26T03:19:06.982Z,95.80
2019-04-26T03:21:46.915Z,95.80
2019-04-26T03:24:24.267Z,95.80
2019-04-26T03:27:11.957Z,95.90
2019-04-26T03:29:49.594Z,96.00
2019-04-26T03:32:51.636Z,95.80
2019-04-26T03:35:37.047Z,96.80
2019-04-26T03:38:26.137Z,95.60
2019-04-26T03:41:10.739Z,96.20
2019-04-26T03:43:45.132Z,96.00
2019-04-26T03:46:31.493Z,96.30
2019-04-26T03:49:36.116Z,96.90
2019-04-26T03:52:24.199Z,99.90
2019-04-26T03:54:58.339Z,99.20
2019-04-26T03:57:50.829Z,96.20
2019-04-26T04:00:24.986Z,96.20
2019-04-26T04:03:04.047Z,99.90
2019-04-26T04:05:44.265Z,99.90
2019-04-26T04:08:15.942Z,97.30
2019-04-26T04:11:05.550Z,96.20
2019-04-26T04:13:40.712Z,96.20
2019-04-26T04:16:31.459Z,96.10
2019-04-26T04:19:11.893Z,96.10
2019-04-26T04:21:50.981Z,96.50
2019-04-26T04:24:22.770Z,96.40
2019-04-26T04:27:00.230Z,96.10
2019-04-26T04:29:44.792Z,96.10
2019-04-26T04:32:11.042Z,96.20
2019-04-26T04:34:49.609Z,96.50
2019-04-26T04:37:20.468Z,96.60
2019-04-26T04:40:04.646Z,96.50
2019-04-26T04:43:04.504Z,96.20
2019-04-26T04:45:53.145Z,96.70
2019-04-26T04:48:51.142Z,96.80
2019-04-26T04:51:32.904Z,97.30
2019-04-26T04:54:16.285Z,97.80
2019-04-26T04:56:47.891Z,97.60
2019-04-26T04:59:24.985Z,98.60
2019-04-26T05:02:06.909Z,98.80
2019-04-26T05:04:46.816Z,98.80
2019-04-26T05:07:33.258Z,99.60
2019-04-26T05:10:10.246Z,99.80
2019-04-26T05:12:47.899Z,99.90
2019-04-26T05:15:29.314Z,99.90
2019-04-26T05:18:34.921Z,99.90
2019-04-26T05:21:28.697Z,99.90
2019-04-26T05:24:15.161Z,99.90
2019-04-26T05:26:51.486Z,99.90
2019-04-26T05:29:33.761Z,99.90
2019-04-26T05:32:20.087Z,99.90
2019-04-26T05:35:11.270Z,99.90
2019-04-26T05:38:00.443Z,99.90
2019-04-26T05:40:48.618Z,99.90
2019-04-26T05:43:34.541Z,99.90
2019-04-26T05:46:19.196Z,99.90
2019-04-26T05:49:14.149Z,99.90
2019-04-26T05:52:02.167Z,99.90
2019-04-26T05:54:53.994Z,99.90
2019-04-26T05:57:41.600Z,99.90
2019-04-26T06:00:39.554Z,99.90
2019-04-26T06:03:18.288Z,99.90
2019-04-26T06:06:05.277Z,99.90
2019-04-26T06:08:51.178Z,99.90
2019-04-26T06:11:24.818Z,99.90
2019-04-26T06:14:00.425Z,99.90
2019-04-26T06:16:57.430Z,99.90
2019-04-26T06:19:42.277Z,99.90
2019-04-26T06:22:16.742Z,99.90
2019-04-26T06:25:11.007Z,99.90
2019-04-26T06:27:56.233Z,99.90
2019-04-26T06:30:27.859Z,99.90
2019-04-26T06:33:15.260Z,99.90
2019-04-26T06:35:47.430Z,99.90
2019-04-26T06:38:43.465Z,99.90
2019-04-26T06:41:27.436Z,99.90
2019-04-26T06:44:00.581Z,99.90
2019-04-26T06:47:04.945Z,99.90
2019-04-26T06:49:56.872Z,99.90
2019-04-26T06:52:28.926Z,99.90
2019-04-26T06:55:04.273Z,99.90
2019-04-26T06:58:13.098Z,99.90
2019-04-26T07:01:01.118Z,99.90
2019-04-26T07:03:53.566Z,99.90
2019-04-26T07:06:35.285Z,99.90
2019-04-26T07:09:11.708Z,99.90
2019-04-26T07:12:22.262Z,99.90
2019-04-26T07:15:01.062Z,99.90
2019-04-26T07:17:42.144Z,99.90
2019-04-26T07:20:14.207Z,99.90
2019-04-26T07:23:21.292Z,99.90
2019-04-26T07:26:16.731Z,99.90
2019-04-26T07:29:03.555Z,99.90
2019-04-26T07:31:42.373Z,99.90
2019-04-26T07:34:42.564Z,99.90
2019-04-26T07:37:26.013Z,99.90
2019-04-26T07:40:07.713Z,99.90
2019-04-26T07:43:09.023Z,99.90
2019-04-26T07:46:09.127Z,99.90
2019-04-26T07:48:56.787Z,99.90
2019-04-26T07:51:49.301Z,99.90
2019-04-26T07:54:44.068Z,99.90
2019-04-26T07:57:41.403Z,99.90
2019-04-26T08:00:19.326Z,99.90
2019-04-26T08:02:54.973Z,99.90
2019-04-26T08:05:37.039Z,99.90
2019-04-26T08:08:08.585Z,99.90
2019-04-26T08:10:39.845Z,99.90
2019-04-26T08:13:11.451Z,99.90
2019-04-26T08:15:53.058Z,99.90
2019-04-26T08:18:28.640Z,99.90
2019-04-26T08:21:02.430Z,99.90
2019-04-26T08:23:41.644Z,99.90
2019-04-26T08:26:13.466Z,99.90
2019-04-26T08:28:43.734Z,99.90
2019-04-26T08:31:19.464Z,99.90
2019-04-26T08:33:49.749Z,99.90
2019-04-26T08:36:23.316Z,99.90
2019-04-26T08:38:54.068Z,99.90
2019-04-26T08:41:24.115Z,99.90
2019-04-26T08:43:59.730Z,99.90
2019-04-26T08:46:51.041Z,99.90
2019-04-26T08:49:39.177Z,99.90
2019-04-26T08:52:14.222Z,99.90
2019-04-26T08:54:41.586Z,99.90
2019-04-26T08:57:12.945Z,99.90
2019-04-26T08:59:44.448Z,99.90
2019-04-26T09:02:17.617Z,99.90
2019-04-26T09:04:57.949Z,99.90
2019-04-26T09:07:31.177Z,99.90
2019-04-26T09:10:10.763Z,99.90
2019-04-26T09:12:35.454Z,99.90
2019-04-26T09:15:10.675Z,99.90
2019-04-26T09:17:39.130Z,99.90
2019-04-26T09:20:09.394Z,99.90
2019-04-26T09:22:48.724Z,99.90
2019-04-26T09:25:30.348Z,99.90
2019-04-26T09:28:15.639Z,99.90
2019-04-26T09:30:54.779Z,99.90
2019-04-26T09:33:24.866Z,99.90
2019-04-26T09:35:53.330Z,99.90
2019-04-26T09:38:22.010Z,99.90
2019-04-26T09:40:52.576Z,99.90
2019-04-26T09:43:22.324Z,99.90
2019-04-26T09:45:55.078Z,99.90
2019-04-26T09:48:31.097Z,99.90
2019-04-26T09:51:01.129Z,99.90
2019-04-26T09:53:29.563Z,99.90
2019-04-26T09:55:58.027Z,99.90
2019-04-26T09:58:26.770Z,99.90
2019-04-26T10:00:56.717Z,99.90
2019-04-26T10:03:25.138Z,99.90
2019-04-26T10:05:55.819Z,99.90
2019-04-26T10:08:24.009Z,99.90
2019-04-26T10:10:52.450Z,99.90
2019-04-26T10:13:34.317Z,99.90
2019-04-26T10:16:22.280Z,99.90
2019-04-26T10:18:54.466Z,99.90
2019-04-26T10:21:22.486Z,99.90
2019-04-26T10:23:50.933Z,99.90
2019-04-26T10:26:23.310Z,99.90
2019-04-26T10:28:50.677Z,99.90
2019-04-26T10:31:20.066Z,99.90
2019-04-26T10:33:48.499Z,99.90
2019-04-26T10:36:16.943Z,99.90
2019-04-26T10:38:45.373Z,99.90
2019-04-26T10:41:13.890Z,99.90
2019-04-26T10:43:42.313Z,99.90
2019-04-26T10:46:10.761Z,99.90
2019-04-26T10:48:41.313Z,99.90
2019-04-26T10:51:09.733Z,99.90
2019-04-26T10:53:42.587Z,99.90
2019-04-26T10:56:28.995Z,99.90
2019-04-26T10:59:06.137Z,99.90
2019-04-26T11:01:36.205Z,99.90
2019-04-26T11:04:04.638Z,99.90
2019-04-26T11:06:33.111Z,99.90
2019-04-26T11:09:01.537Z,99.90
2019-04-26T11:11:29.985Z,99.90
2019-04-26T11:13:58.461Z,99.90
2019-04-26T11:16:27.413Z,99.90
2019-04-26T11:18:57.148Z,99.90
2019-04-26T11:21:26.061Z,99.90
2019-04-26T11:23:54.530Z,99.90
2019-04-26T11:26:22.989Z,99.90
2019-04-26T11:28:55.529Z,99.90
2019-04-26T11:31:23.345Z,99.90
2019-04-26T11:33:52.010Z,99.90
2019-04-26T11:36:22.196Z,99.90
2019-04-26T11:38:50.710Z,99.90
2019-04-26T11:41:19.134Z,99.90
2019-04-26T11:43:49.089Z,99.90
2019-04-26T11:46:21.359Z,99.90
2019-04-26T11:48:58.577Z,99.90
2019-04-26T11:51:18.292Z,99.90
2019-04-26T11:53:46.782Z,99.90
2019-04-26T11:56:15.278Z,99.90
2019-04-26T11:58:43.993Z,99.90
2019-04-26T12:01:14.164Z,99.90
2019-04-26T12:03:44.254Z,99.90
2019-04-26T12:06:30.605Z,99.90
2019-04-26T12:09:00.951Z,99.90
2019-04-26T12:11:34.160Z,99.90
2019-04-26T12:14:00.516Z,99.90
2019-04-26T12:16:29.699Z,99.90
2019-04-26T12:18:58.173Z,99.90
2019-04-26T12:21:30.328Z,99.90
2019-04-26T12:23:56.814Z,99.90
2019-04-26T12:26:25.241Z,99.90
2019-04-26T12:28:53.702Z,99.90
2019-04-26T12:31:22.404Z,99.90
2019-04-26T12:33:50.875Z,99.90
2019-04-26T12:36:19.425Z,99.90
2019-04-26T12:38:47.895Z,99.90
2019-04-26T12:41:17.263Z,99.90
2019-04-26T12:43:46.892Z,99.90
2019-04-26T12:46:16.984Z,99.90
2019-04-26T12:48:45.982Z,99.90
2019-04-26T12:51:15.822Z,99.90
2019-04-26T12:53:44.275Z,99.90
2019-04-26T12:56:12.702Z,99.90
2019-04-26T12:58:41.398Z,99.90
2019-04-26T13:01:12.117Z,98.00
2019-04-26T13:03:43.587Z,99.90
2019-04-26T13:06:12.086Z,99.90
2019-04-26T13:08:40.889Z,99.90
2019-04-26T13:11:14.982Z,99.90
2019-04-26T13:13:43.045Z,99.90
2019-04-26T13:16:21.694Z,99.90
2019-04-26T13:18:49.425Z,99.90
2019-04-26T13:21:17.857Z,99.90
2019-04-26T13:23:48.164Z,99.90
2019-04-26T13:26:16.886Z,99.90
2019-04-26T13:28:45.313Z,99.90
2019-04-26T13:31:13.759Z,99.90
2019-04-26T13:33:42.274Z,99.90
2019-04-26T13:36:10.778Z,99.90
2019-04-26T13:38:43.288Z,99.90
2019-04-26T13:41:09.694Z,99.90
2019-04-26T13:43:38.145Z,99.90
2019-04-26T13:46:10.919Z,99.90
2019-04-26T13:48:43.688Z,99.90
2019-04-26T13:51:12.793Z,99.90
2019-04-26T13:53:41.266Z,99.90
2019-04-26T13:56:09.774Z,99.90
2019-04-26T13:58:38.197Z,99.90
2019-04-26T14:01:06.910Z,99.90
2019-04-26T14:03:35.337Z,99.90
2019-04-26T14:06:03.776Z,99.90
2019-04-26T14:08:32.222Z,99.90
2019-04-26T14:11:00.931Z,99.90
2019-04-26T14:13:29.352Z,99.90
2019-04-26T14:15:57.869Z,99.90
2019-04-26T14:18:26.317Z,99.90
2019-04-26T14:20:58.850Z,99.90
2019-04-26T14:23:38.677Z,99.90
2019-04-26T14:26:14.925Z,99.90
2019-04-26T14:28:43.350Z,99.90
2019-04-26T14:31:16.624Z,99.90
2019-04-26T14:33:42.780Z,99.90
2019-04-26T14:36:17.667Z,99.90
2019-04-26T14:38:41.466Z,99.90
2019-04-26T14:41:13.136Z,99.90
2019-04-26T14:43:41.559Z,99.90
2019-04-26T14:46:10.403Z,99.90
2019-04-26T14:48:44.579Z,99.90
2019-04-26T14:51:12.415Z,99.90
2019-04-26T14:53:40.899Z,99.90
2019-04-26T14:56:09.357Z,99.90
2019-04-26T14:58:37.877Z,99.90
2019-04-26T15:01:07.941Z,99.90
2019-04-26T15:03:47.091Z,99.90
2019-04-26T15:06:21.514Z,99.90
2019-04-26T15:08:50.939Z,99.90
2019-04-26T15:11:19.402Z,99.90
2019-04-26T15:13:47.820Z,99.90
2019-04-26T15:16:16.275Z,99.90
2019-04-26T15:18:44.721Z,99.90
2019-04-26T15:21:13.149Z,99.90
2019-04-26T15:23:41.601Z,99.90
2019-04-26T15:26:10.027Z,99.90
2019-04-26T15:28:38.483Z,99.90
2019-04-26T15:31:07.186Z,99.90
2019-04-26T15:33:36.111Z,99.90
2019-04-26T15:36:06.384Z,99.90
2019-04-26T15:38:41.402Z,99.90
2019-04-26T15:41:17.031Z,99.90
2019-04-26T15:43:59.398Z,99.90
2019-04-26T15:46:48.556Z,99.90
2019-04-26T15:49:34.725Z,99.90
2019-04-26T15:52:01.794Z,99.50
2019-04-26T15:54:30.217Z,99.90
2019-04-26T15:56:58.673Z,98.40
2019-04-26T15:59:27.119Z,99.90
2019-04-26T16:01:56.353Z,99.90
2019-04-26T16:04:24.980Z,99.90
2019-04-26T16:06:53.710Z,99.90
2019-04-26T16:09:23.008Z,99.80
2019-04-26T16:11:53.096Z,99.30
2019-04-26T16:14:24.940Z,99.90
2019-04-26T16:16:52.534Z,99.90
2019-04-26T16:19:21.257Z,96.80
2019-04-26T16:21:52.782Z,99.30
2019-04-26T16:24:19.957Z,99.90
2019-04-26T16:26:55.674Z,98.30
2019-04-26T16:29:24.283Z,97.90
2019-04-26T16:32:12.380Z,97.10
2019-04-26T16:34:47.679Z,98.00
2019-04-26T16:37:14.989Z,99.90
2019-04-26T16:39:48.281Z,99.90
2019-04-26T16:42:13.998Z,98.20
2019-04-26T16:44:44.969Z,97.40
2019-04-26T16:47:13.213Z,99.50
2019-04-26T16:49:44.181Z,99.90
2019-04-26T16:52:13.990Z,97.30
2019-04-26T16:54:42.594Z,97.10
2019-04-26T16:57:12.298Z,97.60
2019-04-26T16:59:49.009Z,97.60
2019-04-26T17:02:13.359Z,99.70
2019-04-26T17:04:43.590Z,98.50
2019-04-26T17:07:13.291Z,99.90
2019-04-26T17:09:55.799Z,99.90
2019-04-26T17:12:14.972Z,97.30
2019-04-26T17:14:47.841Z,99.90
2019-04-26T17:17:14.245Z,97.40
2019-04-26T17:19:43.226Z,97.70
2019-04-26T17:22:19.480Z,98.50
2019-04-26T17:24:53.406Z,97.60
2019-04-26T17:27:23.777Z,98.10
2019-04-26T17:29:52.800Z,98.30
2019-04-26T17:32:23.117Z,98.80
2019-04-26T17:34:52.262Z,99.90
2019-04-26T17:37:26.190Z,99.90
2019-04-26T17:39:55.264Z,98.80
2019-04-26T17:42:25.327Z,99.60
2019-04-26T17:44:52.574Z,99.90
2019-04-26T17:47:21.055Z,99.90
2019-04-26T17:49:50.179Z,99.90
2019-04-26T17:52:20.426Z,99.90
2019-04-26T17:54:50.192Z,99.90
2019-04-26T17:57:32.161Z,99.90
2019-04-26T17:59:51.577Z,99.90
2019-04-26T18:02:38.682Z,99.90
2019-04-26T18:04:58.934Z,99.90
2019-04-26T18:07:39.697Z,99.90
2019-04-26T18:09:52.578Z,99.90
2019-04-26T18:12:21.110Z,99.90
2019-04-26T18:14:49.806Z,99.90
2019-04-26T18:17:23.200Z,99.90
2019-04-26T18:19:54.860Z,99.90
2019-04-26T18:22:28.422Z,99.90
2019-04-26T18:24:58.287Z,99.90
2019-04-26T18:27:29.892Z,99.90
2019-04-26T18:29:59.823Z,99.90
2019-04-26T18:32:27.277Z,99.90
2019-04-26T18:34:55.729Z,99.90
2019-04-26T18:37:24.190Z,99.90
2019-04-26T18:39:53.465Z,99.90
2019-04-26T18:42:22.063Z,99.90
2019-04-26T18:44:50.771Z,99.90
2019-04-26T18:47:25.732Z,99.90
2019-04-26T18:49:52.070Z,99.90
2019-04-26T18:52:23.312Z,99.90
2019-04-26T18:54:53.111Z,99.90
2019-04-26T18:57:21.562Z,99.90
2019-04-26T18:59:52.825Z,99.90
2019-04-26T19:02:23.558Z,99.90
2019-04-26T19:04:52.967Z,99.90
2019-04-26T19:07:31.870Z,99.90
2019-04-26T19:10:02.826Z,99.90
2019-04-26T19:12:26.640Z,99.90
2019-04-26T19:15:11.482Z,99.90
2019-04-26T19:17:51.587Z,99.90
2019-04-26T19:20:24.429Z,99.90
2019-04-26T19:22:54.506Z,99.90
2019-04-26T19:25:23.884Z,99.90
2019-04-26T19:27:54.059Z,99.90
2019-04-26T19:30:23.053Z,99.90
2019-04-26T19:32:53.859Z,99.90
2019-04-26T19:35:22.108Z,99.90
2019-04-26T19:37:51.754Z,99.90
2019-04-26T19:40:20.398Z,99.90
2019-04-26T19:42:53.715Z,99.90
2019-04-26T19:45:32.668Z,99.90
2019-04-26T19:48:02.817Z,99.90
2019-04-26T19:50:42.083Z,99.90
2019-04-26T19:53:20.960Z,99.90
2019-04-26T19:56:05.080Z,99.90
2019-04-26T19:58:35.405Z,99.90
2019-04-26T20:01:04.423Z,99.90
2019-04-26T20:03:33.841Z,99.90
2019-04-26T20:06:02.462Z,99.90
2019-04-26T20:08:35.359Z,99.90
2019-04-26T20:11:01.409Z,99.90
2019-04-26T20:13:31.596Z,99.90
2019-04-26T20:16:02.706Z,99.90
2019-04-26T20:18:32.770Z,99.90
2019-04-26T20:21:02.379Z,99.90
2019-04-26T20:23:33.602Z,99.90
2019-04-26T20:26:07.075Z,99.90
2019-04-26T20:28:37.355Z,99.90
2019-04-26T20:31:08.895Z,99.90
2019-04-26T20:33:37.408Z,99.90
2019-04-26T20:36:05.875Z,99.90
2019-04-26T20:38:42.843Z,99.90
2019-04-26T20:41:04.677Z,99.90
2019-04-26T20:43:36.833Z,99.90
2019-04-26T20:46:14.054Z,99.90
2019-04-26T20:48:33.680Z,99.90
2019-04-26T20:51:02.372Z,99.90
2019-04-26T20:53:40.015Z,99.90
2019-04-26T20:56:03.833Z,99.90
2019-04-26T20:58:31.694Z,99.90
2019-04-26T21:01:01.513Z,99.90
2019-04-26T21:03:32.071Z,99.90
2019-04-26T21:06:01.407Z,99.90
2019-04-26T21:08:31.708Z,99.90
2019-04-26T21:11:01.128Z,99.90
2019-04-26T21:13:31.128Z,99.90
2019-04-26T21:16:03.672Z,99.90
2019-04-26T21:18:33.817Z,99.90
2019-04-26T21:21:01.510Z,99.90
2019-04-26T21:23:33.807Z,99.90
2019-04-26T21:26:02.984Z,99.90
2019-04-26T21:28:42.756Z,99.90
2019-04-26T21:31:10.913Z,99.90
2019-04-26T21:33:50.093Z,99.90
2019-04-26T21:36:34.661Z,99.90
2019-04-26T21:39:07.367Z,99.90
2019-04-26T21:41:35.609Z,99.90
2019-04-26T21:44:07.661Z,99.90
2019-04-26T21:46:34.301Z,99.90
2019-04-26T21:49:03.618Z,99.90
2019-04-26T21:51:33.847Z,99.90
2019-04-26T21:54:03.779Z,99.90
2019-04-26T21:56:33.738Z,99.90
2019-04-26T21:59:03.673Z,99.90
2019-04-26T22:01:33.104Z,99.90
2019-04-26T22:04:03.015Z,99.90
2019-04-26T22:06:33.326Z,99.90
2019-04-26T22:09:06.526Z,99.90
2019-04-26T22:11:35.013Z,99.90
2019-04-26T22:14:08.177Z,99.90
2019-04-26T22:16:57.642Z,99.90
2019-04-26T22:19:43.196Z,99.90
2019-04-26T22:22:15.151Z,99.90
2019-04-26T22:24:45.214Z,99.90
2019-04-26T22:27:17.382Z,99.90
2019-04-26T22:29:47.664Z,99.90
2019-04-26T22:32:15.925Z,99.90
2019-04-26T22:34:46.102Z,99.90
2019-04-26T22:37:23.165Z,99.90
2019-04-26T22:39:44.765Z,99.90
2019-04-26T22:42:13.914Z,99.90
2019-04-26T22:44:44.086Z,99.90
2019-04-26T22:47:16.844Z,99.90
2019-04-26T22:49:45.478Z,99.90
2019-04-26T22:52:16.432Z,99.90
2019-04-26T22:54:46.531Z,99.90
2019-04-26T22:57:16.183Z,99.90
2019-04-26T22:59:49.992Z,99.90
2019-04-26T23:02:18.322Z,99.90
2019-04-26T23:04:45.653Z,99.90
2019-04-26T23:07:18.269Z,99.90
2019-04-26T23:09:52.271Z,99.90
2019-04-26T23:12:27.857Z,99.90
2019-04-26T23:15:13.288Z,99.90
2019-04-26T23:17:52.250Z,99.90
2019-04-26T23:20:23.391Z,99.90
2019-04-26T23:22:52.968Z,99.90
2019-04-26T23:25:21.726Z,99.90
2019-04-26T23:27:50.449Z,99.90
2019-04-26T23:30:20.617Z,99.90
2019-04-26T23:32:52.265Z,99.90
2019-04-26T23:35:19.217Z,99.90
2019-04-26T23:37:47.693Z,99.90
2019-04-26T23:40:16.131Z,99.90
2019-04-26T23:42:47.519Z,99.90
2019-04-26T23:45:15.002Z,99.90
2019-04-26T23:47:43.816Z,99.90
2019-04-26T23:50:14.042Z,99.90
2019-04-26T23:52:43.668Z,99.90
2019-04-26T23:55:13.499Z,99.90
2019-04-26T23:57:43.478Z,99.90
